Time;durP1;ratioP1;P1;durP2;ratioP2;P2;SDS_P1;SDS_P2;PMS_P1;PMS_P2;Temp;Humidity;BMP_temperature;BMP_pressure;BME280_temperature;BME280_humidity;BME280_pressure;Samples;Min_cycle;Max_cycle;Signal;HPM_P1;HPM_P2
2021/11/28 00:17:29;;;;;;;10.98;6.95;;;0.20;99.90;;;;;;20665831;28;20042;-75
2021/11/28 00:27:30;;;;;;;11.68;6.38;;;0.30;99.90;;;;;;20666440;28;20516;-76
2021/11/28 00:37:31;;;;;;;13.75;6.20;;;0.30;99.90;;;;;;20665253;28;20042;-75
2021/11/28 00:47:31;;;;;;;10.52;6.38;;;0.20;99.90;;;;;;20663593;28;20534;-76
2021/11/28 00:57:33;;;;;;;10.32;6.35;;;0.10;99.90;;;;;;20672671;28;20057;-77
2021/11/28 01:07:38;;;;;;;12.70;6.72;;;-0.10;99.90;;;;;;20699360;28;20026;-77
2021/11/28 01:17:39;;;;;;;9.98;5.93;;;-0.20;99.90;;;;;;20766195;28;20542;-77
2021/11/28 01:27:42;;;;;;;9.35;5.70;;;-0.20;99.90;;;;;;20771895;28;20559;-77
2021/11/28 01:37:44;;;;;;;10.20;5.32;;;0.00;99.90;;;;;;20773842;28;20049;-76
2021/11/28 01:47:46;;;;;;;14.93;6.22;;;0.00;99.90;;;;;;20778356;28;20547;-77
2021/11/28 01:57:47;;;;;;;11.52;5.25;;;0.10;99.90;;;;;;20762691;28;20042;-77
2021/11/28 02:07:49;;;;;;;9.70;4.47;;;0.20;99.90;;;;;;20755948;28;20408;-77
2021/11/28 02:17:53;;;;;;;7.75;4.45;;;0.10;99.90;;;;;;20740208;28;20033;-77
2021/11/28 02:27:55;;;;;;;8.45;4.18;;;0.10;99.90;;;;;;20766854;28;20036;-76
2021/11/28 02:37:57;;;;;;;7.53;4.22;;;0.10;99.90;;;;;;20765140;28;20069;-77
2021/11/28 02:48:01;;;;;;;6.57;4.00;;;0.20;99.90;;;;;;20759439;28;20438;-77
2021/11/28 02:58:03;;;;;;;6.88;4.55;;;0.10;99.90;;;;;;20756018;28;20041;-77
2021/11/28 03:08:04;;;;;;;8.23;4.75;;;0.20;99.90;;;;;;20758649;28;20038;-77
2021/11/28 03:18:13;;;;;;;11.80;6.80;;;0.20;99.90;;;;;;20762931;28;20034;-76
2021/11/28 03:28:19;;;;;;;14.85;8.40;;;0.20;99.90;;;;;;20746331;28;20038;-77
2021/11/28 03:38:20;;;;;;;16.08;8.50;;;0.20;99.90;;;;;;20743525;28;20040;-77
2021/11/28 03:48:21;;;;;;;20.02;10.32;;;0.20;99.90;;;;;;20738361;28;20034;-77
2021/11/28 03:58:23;;;;;;;19.50;10.80;;;0.20;99.90;;;;;;20736768;28;20076;-76
2021/11/28 04:08:24;;;;;;;19.33;9.85;;;0.10;99.90;;;;;;20722555;28;20096;-77
2021/11/28 04:18:25;;;;;;;18.38;9.55;;;0.30;99.90;;;;;;20684750;28;20085;-76
2021/11/28 04:28:26;;;;;;;23.50;9.35;;;0.20;99.90;;;;;;20681206;28;20045;-76
2021/11/28 04:38:27;;;;;;;25.10;11.90;;;0.00;99.90;;;;;;20692397;28;20030;-78
2021/11/28 04:48:30;;;;;;;26.80;11.18;;;-0.10;99.90;;;;;;20676465;28;20033;-77
2021/11/28 04:58:41;;;;;;;20.77;11.02;;;-0.20;99.90;;;;;;20674710;28;20026;-77
2021/11/28 05:08:42;;;;;;;15.75;8.63;;;0.10;99.90;;;;;;20675496;28;20504;-78
2021/11/28 05:18:44;;;;;;;24.33;9.40;;;0.10;99.90;;;;;;20676443;28;20069;-77
2021/11/28 05:29:10;;;;;;;19.65;9.60;;;0.10;99.90;;;;;;20675747;28;20566;-76
2021/11/28 05:39:18;;;;;;;17.45;9.30;;;0.00;99.90;;;;;;20674093;28;20052;-78
2021/11/28 05:49:19;;;;;;;20.98;10.68;;;0.10;99.90;;;;;;20678630;28;20053;-76
2021/11/28 05:59:22;;;;;;;16.92;9.13;;;0.10;99.90;;;;;;20672323;28;20043;-75
2021/11/28 06:09:24;;;;;;;18.23;9.00;;;0.00;99.90;;;;;;20697558;28;20027;-77
2021/11/28 06:19:25;;;;;;;15.32;9.10;;;0.10;99.90;;;;;;20670129;28;20035;-77
2021/11/28 06:29:44;;;;;;;22.75;10.18;;;0.10;99.90;;;;;;20670668;28;20034;-78
2021/11/28 06:39:45;;;;;;;20.95;11.48;;;0.20;99.90;;;;;;20669439;28;20034;-75
2021/11/28 06:50:02;;;;;;;16.55;9.48;;;0.20;99.90;;;;;;20669707;28;20127;-78
2021/11/28 07:00:22;;;;;;;27.05;12.35;;;0.30;99.90;;;;;;20670576;28;20448;-76
2021/11/28 07:10:23;;;;;;;19.60;10.48;;;0.40;99.90;;;;;;20651269;28;20034;-77
2021/11/28 07:20:25;;;;;;;19.90;11.02;;;0.30;99.90;;;;;;20666568;28;20035;-75
2021/11/28 07:30:32;;;;;;;18.73;10.00;;;0.40;99.90;;;;;;20665006;28;20042;-77
2021/11/28 07:40:53;;;;;;;17.58;10.70;;;0.50;99.90;;;;;;20667155;28;20507;-77
2021/11/28 07:51:16;;;;;;;17.45;10.52;;;0.60;99.90;;;;;;20672986;28;20480;-77
2021/11/28 08:11:46;;;;;;;20.67;11.57;;;0.90;99.90;;;;;;20595451;28;20057;-75
2021/11/28 08:21:47;;;;;;;25.77;11.77;;;1.00;99.90;;;;;;20665463;28;20460;-76
2021/11/28 08:31:49;;;;;;;35.03;16.50;;;1.40;99.90;;;;;;20676873;28;20613;-76
2021/11/28 08:42:09;;;;;;;25.52;13.00;;;1.40;99.90;;;;;;20676036;28;20046;-76
2021/11/28 08:52:10;;;;;;;20.23;10.93;;;1.60;99.90;;;;;;20675386;28;20473;-76
2021/11/28 09:02:11;;;;;;;23.58;10.40;;;1.80;99.90;;;;;;20654099;28;20053;-75
2021/11/28 09:12:12;;;;;;;23.08;12.43;;;1.80;99.90;;;;;;20631789;28;20034;-76
2021/11/28 09:22:22;;;;;;;28.10;13.77;;;1.70;99.90;;;;;;20631008;28;20031;-75
2021/11/28 09:32:23;;;;;;;23.53;12.53;;;1.80;99.90;;;;;;20632863;28;20668;-75
2021/11/28 09:42:37;;;;;;;22.98;11.13;;;2.10;99.90;;;;;;20627089;28;20029;-75
2021/11/28 09:52:38;;;;;;;18.65;8.68;;;3.40;99.90;;;;;;20626677;28;20663;-75
2021/11/28 10:02:40;;;;;;;13.77;7.50;;;3.10;99.90;;;;;;20650219;28;20082;-72
2021/11/28 10:12:47;;;;;;;14.70;7.68;;;3.10;99.90;;;;;;20548409;28;20409;-76
2021/11/28 10:22:50;;;;;;;15.40;7.90;;;3.30;99.90;;;;;;20548552;28;20042;-74
2021/11/28 10:32:50;;;;;;;12.20;6.93;;;3.50;99.90;;;;;;20546115;28;20030;-75
2021/11/28 10:43:12;;;;;;;7.10;4.70;;;3.20;99.90;;;;;;20546619;28;20116;-75
2021/11/28 10:53:16;;;;;;;;;;;3.20;99.90;;;;;;20545655;28;20045;-73
2021/11/28 11:03:31;;;;;;;10.50;5.20;;;3.30;99.90;;;;;;20520688;28;1182239;-75
2021/11/28 11:13:32;;;;;;;6.75;3.90;;;3.30;99.90;;;;;;20562656;28;20038;-74
2021/11/28 11:23:45;;;;;;;7.95;3.05;;;3.40;99.90;;;;;;20547164;28;20481;-76
2021/11/28 11:33:45;;;;;;;6.00;3.20;;;3.40;99.90;;;;;;20545137;28;20031;-75
2021/11/28 11:43:46;;;;;;;7.50;2.70;;;3.40;99.90;;;;;;20546192;28;20402;-74
2021/11/28 11:53:47;;;;;;;;;;;3.70;99.90;;;;;;20544783;28;20042;-71
2021/11/28 12:03:54;;;;;;;6.85;2.13;;;3.80;99.90;;;;;;20544689;28;19922;-75
2021/11/28 12:13:57;;;;;;;3.13;1.88;;;3.80;99.90;;;;;;20559865;28;20412;-75
2021/11/28 12:24:02;;;;;;;1.48;1.30;;;3.60;99.90;;;;;;20543768;28;20090;-75
2021/11/28 12:34:08;;;;;;;2.13;1.40;;;3.60;99.90;;;;;;20544759;28;20038;-75
2021/11/28 12:44:09;;;;;;;2.65;1.88;;;3.50;99.90;;;;;;20543508;28;20047;-75
2021/11/28 12:54:10;;;;;;;2.25;1.52;;;3.30;99.90;;;;;;20553386;28;20034;-75
2021/11/28 13:04:38;;;;;;;5.13;2.35;;;3.20;99.90;;;;;;20553571;28;20050;-75
2021/11/28 13:14:44;;;;;;;4.18;2.10;;;3.20;99.90;;;;;;20556674;28;20390;-75
2021/11/28 13:24:45;;;;;;;4.20;2.97;;;3.20;99.90;;;;;;20556324;28;20660;-73
2021/11/28 13:35:21;;;;;;;4.07;2.60;;;3.20;99.90;;;;;;20534985;28;20051;-75
2021/11/28 13:45:22;;;;;;;4.85;2.42;;;3.20;99.90;;;;;;20554125;28;20039;-74
2021/11/28 13:55:23;;;;;;;3.92;2.55;;;3.20;99.90;;;;;;20576376;28;20041;-75
2021/11/28 14:05:27;;;;;;;3.90;2.80;;;3.10;99.90;;;;;;20631419;23;20092;-75
2021/11/28 14:15:31;;;;;;;5.45;3.83;;;2.90;99.90;;;;;;20713003;28;20029;-74
2021/11/28 14:25:41;;;;;;;6.28;4.70;;;2.80;99.90;;;;;;20711991;28;20030;-74
2021/11/28 14:36:15;;;;;;;7.45;4.72;;;2.50;99.90;;;;;;20714838;28;20030;-73
2021/11/28 14:46:26;;;;;;;9.85;6.20;;;2.30;99.90;;;;;;20712304;28;20515;-74
2021/11/28 14:56:27;;;;;;;13.40;6.65;;;2.20;99.90;;;;;;20715984;28;20068;-72
2021/11/28 15:06:28;;;;;;;31.73;13.07;;;2.10;99.90;;;;;;20716225;28;20496;-74
2021/11/28 15:16:33;;;;;;;8.20;4.90;;;2.10;99.90;;;;;;20711130;28;20066;-74
2021/11/28 15:26:35;;;;;;;15.55;8.02;;;2.00;99.90;;;;;;20710472;28;20040;-75
2021/11/28 15:36:38;;;;;;;17.25;9.48;;;1.80;99.90;;;;;;20712936;28;20036;-75
2021/11/28 15:46:38;;;;;;;12.50;6.47;;;1.60;99.90;;;;;;20695493;28;20033;-73
2021/11/28 15:56:40;;;;;;;11.15;6.50;;;1.40;99.90;;;;;;20709250;28;20033;-74
2021/11/28 16:06:41;;;;;;;13.57;7.53;;;1.20;99.90;;;;;;20705232;28;20562;-73
2021/11/28 16:16:41;;;;;;;26.42;13.05;;;1.10;99.90;;;;;;20692059;28;20029;-77
2021/11/28 16:26:42;;;;;;;16.83;9.48;;;1.00;99.90;;;;;;20714688;28;20408;-76
2021/11/28 16:36:43;;;;;;;19.48;10.98;;;1.00;99.90;;;;;;20722283;28;20038;-75
2021/11/28 16:46:48;;;;;;;40.92;21.02;;;1.00;99.90;;;;;;20720706;28;20108;-75
2021/11/28 16:56:49;;;;;;;20.55;9.77;;;1.10;99.90;;;;;;20720364;28;20041;-77
2021/11/28 17:06:53;;;;;;;11.82;7.15;;;0.90;99.90;;;;;;20719997;28;20685;-77
2021/11/28 17:16:54;;;;;;;13.85;7.60;;;0.90;99.90;;;;;;20722251;28;20034;-75
2021/11/28 17:26:54;;;;;;;18.05;8.35;;;0.90;99.90;;;;;;20720779;28;20083;-77
2021/11/28 17:36:56;;;;;;;27.15;13.52;;;0.80;99.90;;;;;;20719817;28;20022;-77
2021/11/28 17:46:58;;;;;;;17.95;9.57;;;0.80;99.90;;;;;;20720555;28;20145;-77
2021/11/28 17:56:58;;;;;;;18.25;8.00;;;0.80;99.90;;;;;;20719240;28;20073;-77
2021/11/28 18:07:00;;;;;;;25.95;12.70;;;0.80;99.90;;;;;;20718883;28;20171;-76
2021/11/28 18:17:01;;;;;;;25.63;12.40;;;0.80;99.90;;;;;;20713451;28;20033;-76
2021/11/28 18:27:03;;;;;;;29.85;14.10;;;0.80;99.90;;;;;;20710195;28;20044;-76
2021/11/28 18:37:03;;;;;;;35.45;14.63;;;0.90;99.90;;;;;;20694765;28;20033;-77
2021/11/28 18:47:04;;;;;;;30.08;13.77;;;0.90;99.90;;;;;;20709673;28;20036;-75
2021/11/28 18:57:08;;;;;;;30.67;13.82;;;0.90;99.90;;;;;;20711697;28;20030;-74
2021/11/28 19:07:09;;;;;;;32.33;14.05;;;0.90;99.90;;;;;;20711364;28;20038;-74
2021/11/28 19:17:10;;;;;;;30.88;14.32;;;1.00;99.90;;;;;;20698867;28;20136;-74
2021/11/28 19:27:11;;;;;;;31.88;13.85;;;1.00;99.90;;;;;;20715186;28;20040;-77
2021/11/28 19:37:12;;;;;;;27.85;14.23;;;1.10;99.90;;;;;;20707478;28;20822;-75
2021/11/28 19:47:16;;;;;;;28.73;13.35;;;1.10;99.90;;;;;;20707804;28;20030;-76
2021/11/28 19:57:17;;;;;;;29.23;14.73;;;1.20;99.90;;;;;;20707773;28;20037;-76
2021/11/28 20:07:18;;;;;;;29.15;15.05;;;1.20;99.90;;;;;;20718285;23;20073;-76
2021/11/28 20:17:19;;;;;;;32.33;14.98;;;1.10;99.90;;;;;;20684071;28;20030;-73
2021/11/28 20:27:19;;;;;;;33.97;16.40;;;1.10;99.90;;;;;;20663168;28;20038;-76
2021/11/28 20:37:20;;;;;;;33.70;16.30;;;1.10;99.90;;;;;;20663512;28;20046;-76
2021/11/28 20:47:21;;;;;;;39.78;19.50;;;1.10;99.90;;;;;;20660748;28;20574;-75
2021/11/28 20:57:22;;;;;;;35.78;15.68;;;1.10;99.90;;;;;;20663525;28;20042;-75
2021/11/28 21:07:23;;;;;;;38.03;17.15;;;1.10;99.90;;;;;;20662164;28;20963;-73
2021/11/28 21:17:28;;;;;;;37.42;16.25;;;1.20;99.90;;;;;;20673415;28;20680;-76
2021/11/28 21:27:29;;;;;;;43.10;18.05;;;1.20;99.90;;;;;;20674094;28;20034;-75
2021/11/28 21:37:30;;;;;;;35.53;15.75;;;1.20;99.90;;;;;;20670035;28;20050;-75
2021/11/28 21:47:32;;;;;;;31.90;14.95;;;1.20;99.90;;;;;;20670911;28;20044;-72
2021/11/28 21:57:33;;;;;;;26.98;12.82;;;1.20;99.90;;;;;;20668050;28;20035;-75
2021/11/28 22:07:34;;;;;;;27.10;12.65;;;1.20;99.90;;;;;;20672878;28;20054;-72
2021/11/28 22:17:35;;;;;;;25.25;12.07;;;1.30;99.90;;;;;;20671419;28;20092;-73
2021/11/28 22:27:36;;;;;;;23.27;11.27;;;1.30;99.90;;;;;;20663514;28;20034;-73
2021/11/28 22:37:40;;;;;;;22.52;10.60;;;1.30;99.90;;;;;;20664687;28;20035;-73
2021/11/28 22:47:42;;;;;;;27.13;13.18;;;1.30;99.90;;;;;;20667218;28;20084;-76
2021/11/28 22:57:43;;;;;;;29.05;12.02;;;1.20;99.90;;;;;;20666955;28;20026;-73
2021/11/28 23:07:44;;;;;;;24.98;11.70;;;1.30;99.90;;;;;;20660321;28;20488;-72
2021/11/28 23:17:45;;;;;;;22.13;11.65;;;1.30;99.90;;;;;;20664339;28;20187;-76
2021/11/28 23:27:46;;;;;;;23.00;11.18;;;1.30;99.90;;;;;;20665494;28;20041;-74
2021/11/28 23:37:47;;;;;;;23.60;10.10;;;1.30;99.90;;;;;;20661876;28;20037;-75
2021/11/28 23:47:48;;;;;;;25.27;11.75;;;1.20;99.90;;;;;;20661608;28;20033;-75
2021/11/28 23:57:49;;;;;;;23.05;9.77;;;1.10;99.90;;;;;;20687781;28;20056;-73
